createdAt,value
2023-03-22T00:00:30.865Z,8.24
2023-03-22T00:03:57.845Z,8.25
2023-03-22T00:07:03.475Z,8.25
2023-03-22T00:10:21.998Z,8.25
2023-03-22T00:13:29.841Z,8.23
2023-03-22T00:16:35.350Z,8.23
2023-03-22T00:20:01.106Z,8.24
2023-03-22T00:23:27.240Z,8.23
2023-03-22T00:26:41.519Z,8.22
2023-03-22T00:29:50.241Z,8.21
2023-03-22T00:32:58.344Z,8.20
2023-03-22T00:36:05.932Z,8.20
2023-03-22T00:39:31.632Z,8.21
2023-03-22T00:46:26.320Z,8.26
2023-03-22T00:49:50.657Z,8.28
2023-03-22T00:53:35.371Z,8.29
2023-03-22T00:56:45.683Z,8.29
2023-03-22T01:00:09.570Z,8.29
2023-03-22T01:03:35.277Z,8.31
2023-03-22T01:07:02.096Z,8.35
2023-03-22T01:10:33.269Z,8.38
2023-03-22T01:13:39.306Z,8.40
2023-03-22T01:16:57.768Z,8.40
2023-03-22T01:20:22.169Z,8.40
2023-03-22T01:23:45.169Z,8.41
2023-03-22T01:27:03.394Z,8.39
2023-03-22T01:30:10.566Z,8.38
2023-03-22T01:33:19.298Z,8.33
2023-03-22T01:36:43.491Z,8.28
2023-03-22T01:39:52.079Z,8.24
2023-03-22T01:43:05.462Z,8.22
2023-03-22T01:46:13.545Z,8.21
2023-03-22T01:49:27.360Z,8.20
2023-03-22T01:52:32.921Z,8.19
2023-03-22T01:55:43.751Z,8.19
2023-03-22T01:58:56.127Z,8.18
2023-03-22T02:02:08.469Z,8.17
2023-03-22T02:05:23.299Z,8.15
2023-03-22T02:08:29.359Z,8.15
2023-03-22T02:12:04.427Z,8.13
2023-03-22T02:15:17.554Z,8.11
2023-03-22T02:18:52.339Z,8.08
2023-03-22T02:22:32.102Z,8.05
2023-03-22T02:26:10.539Z,8.00
2023-03-22T02:29:22.097Z,7.95
2023-03-22T02:33:07.931Z,7.90
2023-03-22T02:36:26.955Z,7.85
2023-03-22T02:39:59.397Z,7.83
2023-03-22T02:43:14.383Z,7.79
2023-03-22T02:46:32.184Z,7.77
2023-03-22T02:50:03.486Z,7.73
2023-03-22T02:53:15.051Z,7.71
2023-03-22T02:56:41.351Z,7.70
2023-03-22T03:00:12.580Z,7.70
2023-03-22T03:07:01.913Z,7.69
2023-03-22T03:10:39.602Z,7.67
2023-03-22T03:13:49.528Z,7.63
2023-03-22T03:17:12.801Z,7.61
2023-03-22T03:20:24.336Z,7.59
2023-03-22T03:23:50.324Z,7.59
2023-03-22T03:27:00.399Z,7.57
2023-03-22T03:30:23.465Z,7.56
2023-03-22T03:33:54.493Z,7.56
2023-03-22T03:37:03.103Z,7.56
2023-03-22T03:40:29.127Z,7.58
2023-03-22T03:43:44.557Z,7.60
2023-03-22T03:46:54.075Z,7.61
2023-03-22T03:50:04.556Z,7.61
2023-03-22T03:53:50.282Z,7.59
2023-03-22T03:57:16.826Z,7.58
2023-03-22T04:00:58.945Z,7.56
2023-03-22T04:04:29.494Z,7.55
2023-03-22T04:07:58.463Z,7.56
2023-03-22T04:11:24.242Z,7.56
2023-03-22T04:14:49.935Z,7.58
2023-03-22T04:18:16.703Z,7.61
2023-03-22T04:21:43.736Z,7.64
2023-03-22T04:25:12.284Z,7.67
2023-03-22T04:28:56.710Z,7.68
2023-03-22T04:32:24.234Z,7.69
2023-03-22T04:35:50.514Z,7.71
2023-03-22T04:39:16.322Z,7.72
2023-03-22T04:42:42.063Z,7.73
2023-03-22T04:46:13.714Z,7.74
2023-03-22T04:49:42.314Z,7.76
2023-03-22T04:53:08.614Z,7.78
2023-03-22T04:56:34.378Z,7.80
2023-03-22T04:59:59.957Z,7.81
2023-03-22T05:03:26.154Z,7.82
2023-03-22T05:06:51.969Z,7.83
2023-03-22T05:10:20.612Z,7.84
2023-03-22T05:13:48.658Z,7.85
2023-03-22T05:17:14.389Z,7.90
2023-03-22T05:20:41.102Z,7.94
2023-03-22T05:24:10.580Z,7.97
2023-03-22T05:27:39.441Z,8.00
2023-03-22T05:31:08.437Z,8.03
2023-03-22T05:34:42.931Z,8.04
2023-03-22T05:38:15.017Z,8.05
2023-03-22T05:41:41.190Z,8.03
2023-03-22T05:45:08.138Z,8.02
2023-03-22T05:48:33.917Z,8.06
2023-03-22T05:52:00.159Z,8.09
2023-03-22T05:55:26.297Z,8.13
2023-03-22T05:58:52.469Z,8.20
2023-03-22T06:02:18.371Z,8.30
2023-03-22T06:05:44.083Z,8.43
2023-03-22T06:09:16.907Z,8.52
2023-03-22T06:12:43.276Z,8.55
2023-03-22T06:16:09.567Z,8.62
2023-03-22T06:19:35.558Z,8.74
2023-03-22T06:23:01.213Z,8.89
2023-03-22T06:26:27.278Z,8.97
2023-03-22T06:29:54.970Z,9.05
2023-03-22T06:33:20.612Z,9.16
2023-03-22T06:36:46.465Z,9.37
2023-03-22T06:40:13.546Z,9.52
2023-03-22T06:43:39.333Z,9.54
2023-03-22T06:47:05.054Z,9.55
2023-03-22T06:50:44.353Z,9.53
2023-03-22T06:54:14.821Z,9.58
2023-03-22T06:57:40.580Z,9.63
2023-03-22T07:01:06.642Z,9.66
2023-03-22T07:04:33.283Z,9.68
2023-03-22T07:07:59.800Z,9.71
2023-03-22T07:11:27.116Z,9.79
2023-03-22T07:14:55.062Z,9.89
2023-03-22T07:18:23.125Z,10.04
2023-03-22T07:21:48.799Z,10.12
2023-03-22T07:25:14.606Z,10.24
2023-03-22T07:28:44.234Z,10.44
2023-03-22T07:32:10.068Z,10.62
2023-03-22T07:35:37.139Z,10.79
2023-03-22T07:39:02.924Z,11.04
2023-03-22T07:42:28.840Z,11.23
2023-03-22T07:45:53.162Z,11.26
2023-03-22T07:49:32.464Z,11.30
2023-03-22T07:52:57.995Z,11.68
2023-03-22T07:56:23.966Z,12.05
2023-03-22T07:59:49.930Z,12.12
2023-03-22T08:03:37.714Z,12.15
2023-03-22T08:07:03.342Z,12.09
2023-03-22T08:10:29.107Z,12.09
2023-03-22T08:13:55.743Z,12.10
2023-03-22T08:17:21.793Z,12.11
2023-03-22T08:20:47.487Z,12.17
2023-03-22T08:24:14.166Z,12.34
2023-03-22T08:27:28.901Z,12.43
2023-03-22T08:30:54.999Z,12.47
2023-03-22T08:34:20.930Z,12.59
2023-03-22T08:37:46.599Z,12.83
2023-03-22T08:41:12.794Z,13.12
2023-03-22T08:44:59.891Z,13.36
2023-03-22T08:48:28.061Z,13.48
2023-03-22T08:52:17.520Z,13.53
2023-03-22T08:55:49.178Z,13.54
2023-03-22T08:59:23.990Z,13.61
2023-03-22T09:02:50.406Z,13.57
2023-03-22T09:06:16.470Z,13.41
2023-03-22T09:09:42.049Z,13.37
2023-03-22T09:13:07.827Z,13.46
2023-03-22T09:16:33.573Z,13.47
2023-03-22T09:20:11.951Z,13.51
2023-03-22T09:23:40.743Z,13.44
2023-03-22T09:27:06.967Z,13.38
2023-03-22T09:30:32.772Z,13.33
2023-03-22T09:33:58.621Z,13.41
2023-03-22T09:37:30.550Z,13.56
2023-03-22T09:41:01.795Z,13.70
2023-03-22T09:44:29.577Z,13.85
2023-03-22T09:47:56.698Z,13.95
2023-03-22T09:51:30.927Z,13.97
2023-03-22T09:54:56.627Z,14.03
2023-03-22T09:58:49.171Z,14.20
2023-03-22T10:02:24.768Z,14.33
2023-03-22T10:05:54.061Z,14.44
2023-03-22T10:09:22.709Z,14.52
2023-03-22T10:12:55.011Z,14.58
2023-03-22T10:16:26.990Z,14.83
2023-03-22T10:19:57.233Z,15.17
2023-03-22T10:23:28.020Z,15.39
2023-03-22T10:27:03.173Z,15.50
2023-03-22T10:30:32.639Z,15.76
2023-03-22T10:34:01.475Z,15.95
2023-03-22T10:37:32.158Z,16.03
2023-03-22T10:41:01.206Z,15.92
2023-03-22T10:44:28.011Z,15.92
2023-03-22T10:48:03.290Z,15.86
2023-03-22T10:51:32.307Z,15.74
2023-03-22T10:55:03.072Z,15.72
2023-03-22T10:58:33.679Z,15.84
2023-03-22T11:02:03.753Z,15.91
2023-03-22T11:05:30.685Z,16.11
2023-03-22T11:08:58.856Z,16.19
2023-03-22T11:12:26.743Z,16.22
2023-03-22T11:15:53.553Z,16.35
2023-03-22T11:19:23.465Z,16.44
2023-03-22T11:22:49.528Z,16.52
2023-03-22T11:26:15.822Z,16.60
2023-03-22T11:29:44.204Z,16.74
2023-03-22T11:33:19.274Z,16.80
2023-03-22T11:40:19.343Z,16.76
2023-03-22T11:43:49.920Z,16.93
2023-03-22T11:47:17.032Z,17.12
2023-03-22T11:50:44.358Z,17.26
2023-03-22T11:54:12.036Z,17.41
2023-03-22T11:57:38.177Z,17.64
2023-03-22T12:01:06.836Z,17.94
2023-03-22T12:04:35.684Z,18.14
2023-03-22T12:08:08.650Z,18.23
2023-03-22T12:11:37.214Z,18.23
2023-03-22T12:15:05.150Z,18.30
2023-03-22T12:18:33.558Z,18.41
2023-03-22T12:22:00.054Z,18.35
2023-03-22T12:25:28.291Z,18.17
2023-03-22T12:28:56.616Z,18.10
2023-03-22T12:32:25.445Z,17.80
2023-03-22T12:35:52.410Z,17.62
2023-03-22T12:39:22.109Z,17.62
2023-03-22T12:42:54.134Z,17.54
2023-03-22T12:46:25.277Z,17.41
2023-03-22T12:49:55.637Z,17.36
2023-03-22T12:53:43.339Z,17.19
2023-03-22T12:57:09.708Z,17.11
2023-03-22T13:00:39.752Z,17.08
2023-03-22T13:04:19.742Z,17.10
2023-03-22T13:07:53.135Z,17.18
2023-03-22T13:11:24.770Z,17.32
2023-03-22T13:14:57.804Z,17.56
2023-03-22T13:18:33.577Z,17.73
2023-03-22T13:22:19.854Z,17.98
2023-03-22T13:25:58.986Z,18.16
2023-03-22T13:29:26.097Z,18.15
2023-03-22T13:32:56.533Z,18.11
2023-03-22T13:36:25.368Z,18.16
2023-03-22T13:39:46.473Z,18.22
2023-03-22T13:43:13.905Z,18.29
2023-03-22T13:46:47.932Z,18.48
2023-03-22T13:50:17.091Z,18.57
2023-03-22T13:53:36.755Z,18.42
2023-03-22T13:57:02.369Z,18.34
2023-03-22T14:00:44.911Z,18.37
2023-03-22T14:04:12.904Z,18.36
2023-03-22T14:07:41.665Z,18.40
2023-03-22T14:11:15.704Z,18.43
2023-03-22T14:15:47.215Z,18.28
2023-03-22T14:18:34.401Z,18.20
